Time;durP1;ratioP1;P1;durP2;ratioP2;P2;SDS_P1;SDS_P2;PMS_P1;PMS_P2;Temp;Humidity;BMP_temperature;BMP_pressure;BME280_temperature;BME280_humidity;BME280_pressure;Samples;Min_cycle;Max_cycle;Signal;HPM_P1;HPM_P2
2024/02/08 00:01:39;;;;;;;8.23;3.00;;;;;;;14.18;100.00;99844.53;5022946;28;19936;-65
2024/02/08 00:04:07;;;;;;;5.25;2.60;;;;;;;14.40;100.00;99849.50;5022512;28;20408;-65
2024/02/08 00:06:35;;;;;;;4.53;2.50;;;;;;;14.38;100.00;99843.50;5028988;28;20072;-64
2024/02/08 00:09:03;;;;;;;3.70;2.20;;;;;;;14.13;100.00;99848.41;5034189;28;20091;-65
2024/02/08 00:11:33;;;;;;;4.80;2.40;;;;;;;14.30;100.00;99850.81;5009851;28;20675;-65
2024/02/08 00:14:00;;;;;;;6.20;2.47;;;;;;;14.25;100.00;99845.53;5026143;28;20048;-65
2024/02/08 00:16:31;;;;;;;5.22;2.38;;;;;;;14.23;100.00;99847.03;5036642;28;20055;-65
2024/02/08 00:19:04;;;;;;;4.95;2.58;;;;;;;14.31;100.00;99840.56;5031100;28;20776;-66
2024/02/08 00:21:38;;;;;;;4.43;2.53;;;;;;;14.31;100.00;99848.88;5004585;28;20435;-66
2024/02/08 00:24:05;;;;;;;5.07;2.40;;;;;;;14.28;100.00;99839.28;5033752;28;20053;-65
2024/02/08 00:26:33;;;;;;;5.32;2.75;;;;;;;14.14;100.00;99830.59;5028203;28;20049;-65
2024/02/08 00:29:01;;;;;;;5.10;2.47;;;;;;;14.20;100.00;99831.97;5008803;28;20049;-64
2024/02/08 00:31:28;;;;;;;6.65;2.53;;;;;;;14.33;100.00;99827.94;5030264;28;20079;-65
2024/02/08 00:33:56;;;;;;;6.70;3.13;;;;;;;14.41;100.00;99826.16;5029858;28;20061;-65
2024/02/08 00:36:23;;;;;;;6.22;2.92;;;;;;;14.59;100.00;99811.53;5032908;28;20049;-67
2024/02/08 00:38:51;;;;;;;4.10;2.85;;;;;;;14.25;100.00;99820.59;5025157;28;20053;-65
2024/02/08 00:41:23;;;;;;;5.68;3.10;;;;;;;14.37;100.00;99809.44;5012921;28;20064;-65
2024/02/08 00:43:51;;;;;;;4.90;3.03;;;;;;;14.36;100.00;99821.69;5030225;28;20062;-66
2024/02/08 00:46:19;;;;;;;5.20;2.83;;;;;;;14.15;100.00;99818.38;5007232;28;20055;-65
2024/02/08 00:48:47;;;;;;;6.03;2.42;;;;;;;14.33;100.00;99810.53;5038452;28;20076;-65
2024/02/08 00:51:15;;;;;;;5.07;2.58;;;;;;;14.20;100.00;99809.00;5038587;28;20063;-64
2024/02/08 00:53:43;;;;;;;6.97;3.50;;;;;;;14.45;100.00;99799.34;5025131;28;20061;-65
2024/02/08 00:56:13;;;;;;;3.67;2.33;;;;;;;14.42;100.00;99797.25;5017869;28;20065;-65
2024/02/08 00:58:40;;;;;;;;;;;;;;;14.58;100.00;99795.25;5009410;28;20053;-65
2024/02/08 01:01:07;;;;;;;4.55;2.33;;;;;;;14.30;100.00;99805.69;5021440;28;19925;-64
2024/02/08 01:03:36;;;;;;;4.68;2.60;;;;;;;14.34;100.00;99803.81;5016260;28;20156;-65
2024/02/08 01:06:04;;;;;;;3.92;2.50;;;;;;;14.23;100.00;99797.19;5030304;28;20057;-64
2024/02/08 01:08:33;;;;;;;4.90;2.40;;;;;;;14.28;100.00;99800.50;5048132;28;20052;-65
2024/02/08 01:11:00;;;;;;;6.57;2.75;;;;;;;14.29;100.00;99793.00;5015739;28;20452;-64
2024/02/08 01:13:30;;;;;;;3.90;2.42;;;;;;;14.17;100.00;99793.91;5027004;28;20072;-65
2024/02/08 01:15:58;;;;;;;4.55;2.50;;;;;;;14.26;100.00;99797.28;5045929;28;20057;-65
2024/02/08 01:18:25;;;;;;;4.70;2.33;;;;;;;14.26;100.00;99807.59;5038078;28;20049;-64
2024/02/08 01:20:53;;;;;;;4.60;2.20;;;;;;;14.25;100.00;99800.41;5030729;28;20053;-64
2024/02/08 01:23:22;;;;;;;4.05;2.30;;;;;;;14.15;100.00;99793.47;5027728;28;20056;-65
2024/02/08 01:25:50;;;;;;;3.10;2.17;;;;;;;14.35;100.00;99795.13;5025333;28;20429;-64
2024/02/08 01:28:17;;;;;;;3.75;2.00;;;;;;;14.25;100.00;99790.13;5028059;28;20057;-65
2024/02/08 01:30:45;;;;;;;4.18;1.80;;;;;;;14.11;100.00;99784.25;5041715;28;20061;-65
2024/02/08 01:33:13;;;;;;;6.65;1.90;;;;;;;14.03;100.00;99787.22;5027327;28;20052;-65
2024/02/08 01:35:40;;;;;;;3.20;2.00;;;;;;;14.31;100.00;99780.41;5009784;28;20065;-65
2024/02/08 01:38:08;;;;;;;3.92;1.92;;;;;;;14.27;100.00;99784.25;5026682;28;20061;-65
2024/02/08 01:40:36;;;;;;;2.75;1.70;;;;;;;14.38;100.00;99772.25;5030312;28;20041;-65
2024/02/08 01:43:06;;;;;;;2.90;1.50;;;;;;;14.24;100.00;99765.56;5027905;28;20053;-64
2024/02/08 01:45:34;;;;;;;4.43;1.85;;;;;;;14.30;100.00;99759.41;5028352;28;20077;-65
2024/02/08 01:48:15;;;;;;;3.08;1.75;;;;;;;14.16;100.00;99763.78;5027593;28;20091;-65
2024/02/08 01:50:51;;;;;;;3.13;1.88;;;;;;;14.37;100.00;99762.34;5012356;28;20061;-64
2024/02/08 01:53:27;;;;;;;4.28;1.80;;;;;;;14.30;100.00;99762.19;5016230;28;20072;-65
2024/02/08 01:55:59;;;;;;;3.47;1.50;;;;;;;14.46;100.00;99756.59;5009840;28;20161;-65
2024/02/08 01:58:27;;;;;;;5.25;1.70;;;;;;;14.21;100.00;99749.69;4975161;28;20064;-63
2024/02/08 02:01:07;;;;;;;4.20;1.90;;;;;;;14.20;100.00;99743.31;5031297;28;20842;-64
2024/02/08 02:03:35;;;;;;;2.65;1.70;;;;;;;14.12;100.00;99749.84;5028767;28;20061;-64
2024/02/08 02:06:08;;;;;;;2.35;1.50;;;;;;;14.20;100.00;99745.28;5028986;28;20049;-65
2024/02/08 02:08:35;;;;;;;3.33;1.85;;;;;;;14.20;100.00;99742.50;4995798;28;20053;-65
2024/02/08 02:11:11;;;;;;;3.65;1.80;;;;;;;14.32;100.00;99737.69;5026869;28;20056;-64
2024/02/08 02:13:39;;;;;;;4.47;1.90;;;;;;;14.43;100.00;99737.94;5026098;28;20742;-64
2024/02/08 02:16:07;;;;;;;3.67;1.58;;;;;;;14.38;100.00;99738.22;5021781;28;20072;-64
2024/02/08 02:18:36;;;;;;;3.97;1.95;;;;;;;14.40;100.00;99724.81;5013720;28;20052;-65
2024/02/08 02:21:03;;;;;;;3.50;1.85;;;;;;;14.36;100.00;99727.50;5047413;28;20061;-64
2024/02/08 02:23:30;;;;;;;3.10;1.88;;;;;;;14.27;100.00;99718.59;5025245;28;20069;-64
2024/02/08 02:25:58;;;;;;;3.50;1.85;;;;;;;14.31;100.00;99715.91;5027297;28;20061;-64
2024/02/08 02:28:26;;;;;;;6.13;1.80;;;;;;;14.29;100.00;99716.25;5046778;28;20053;-64
2024/02/08 02:30:53;;;;;;;3.38;1.80;;;;;;;14.24;100.00;99710.16;5026308;28;20053;-65
2024/02/08 02:33:21;;;;;;;3.05;1.90;;;;;;;14.44;100.00;99715.41;5008360;28;20053;-65
2024/02/08 02:35:49;;;;;;;5.22;1.92;;;;;;;14.33;100.00;99697.72;5025932;28;20072;-64
2024/02/08 02:38:17;;;;;;;4.20;1.90;;;;;;;14.43;100.00;99705.50;5056650;28;20045;-64
2024/02/08 02:40:46;;;;;;;3.65;2.08;;;;;;;14.41;100.00;99695.94;5014315;28;20080;-64
2024/02/08 02:43:14;;;;;;;3.83;1.85;;;;;;;14.31;100.00;99696.50;5013223;28;20058;-64
2024/02/08 02:45:42;;;;;;;3.20;1.83;;;;;;;14.38;100.00;99694.66;5008962;28;20061;-64
2024/02/08 02:48:09;;;;;;;2.47;1.60;;;;;;;14.27;100.00;99685.34;5007466;28;20053;-64
2024/02/08 02:50:41;;;;;;;3.47;1.80;;;;;;;14.23;100.00;99683.63;5026585;28;20064;-65
2024/02/08 02:53:09;;;;;;;2.50;1.65;;;;;;;14.32;100.00;99681.47;5045770;28;20053;-65
2024/02/08 02:55:37;;;;;;;2.65;1.60;;;;;;;14.28;100.00;99678.63;5026161;28;20061;-65
2024/02/08 02:58:04;;;;;;;2.75;1.50;;;;;;;14.16;100.00;99681.50;5007984;28;20053;-65
2024/02/08 03:00:35;;;;;;;3.22;1.42;;;;;;;14.37;100.00;99664.56;5026968;28;20049;-66
2024/02/08 03:03:07;;;;;;;2.90;1.30;;;;;;;14.28;100.00;99675.88;5034735;28;20116;-63
2024/02/08 03:05:35;;;;;;;2.33;1.30;;;;;;;14.44;100.00;99671.06;5028216;28;20053;-65
2024/02/08 03:08:05;;;;;;;2.90;1.50;;;;;;;14.29;100.00;99657.28;5008947;28;20041;-65
2024/02/08 03:10:37;;;;;;;10.02;1.70;;;;;;;14.07;100.00;99655.19;5009119;28;20049;-65
2024/02/08 03:13:07;;;;;;;1.98;1.00;;;;;;;14.47;100.00;99648.16;5027407;28;20053;-65
2024/02/08 03:15:36;;;;;;;1.95;1.10;;;;;;;14.69;100.00;99654.94;5026979;28;20060;-65
2024/02/08 03:18:05;;;;;;;1.52;1.02;;;;;;;14.60;100.00;99646.84;5027901;28;20065;-64
2024/02/08 03:20:32;;;;;;;2.03;1.17;;;;;;;14.47;100.00;99648.16;5026765;28;20049;-65
2024/02/08 03:22:59;;;;;;;1.60;0.98;;;;;;;14.39;100.00;99645.63;5041396;28;20054;-65
2024/02/08 03:25:27;;;;;;;2.85;1.42;;;;;;;14.37;100.00;99639.63;5024685;28;20053;-61
2024/02/08 03:27:55;;;;;;;2.38;1.10;;;;;;;14.24;100.00;99638.94;5026836;28;20061;-61
2024/02/08 03:30:22;;;;;;;2.08;0.82;;;;;;;14.33;100.00;99630.47;5027191;28;20374;-60
2024/02/08 03:32:55;;;;;;;5.15;1.02;;;;;;;14.18;100.00;99629.31;5025103;28;20057;-62
2024/02/08 03:35:29;;;;;;;1.30;0.90;;;;;;;14.28;100.00;99631.53;5007750;28;20068;-62
2024/02/08 03:38:00;;;;;;;1.48;1.00;;;;;;;14.28;100.00;99623.22;5040580;28;20681;-60
2024/02/08 03:40:31;;;;;;;2.80;0.98;;;;;;;14.28;100.00;99616.88;5046507;28;20065;-61
2024/02/08 03:42:58;;;;;;;1.65;0.80;;;;;;;14.21;100.00;99614.75;5020353;28;20152;-60
2024/02/08 03:45:27;;;;;;;1.55;0.80;;;;;;;14.36;100.00;99622.22;5008446;28;20081;-59
2024/02/08 03:47:59;;;;;;;1.95;0.60;;;;;;;14.31;100.00;99616.19;5026682;28;20061;-60
2024/02/08 03:50:33;;;;;;;0.75;0.55;;;;;;;14.49;100.00;99617.31;5025753;28;20166;-58
2024/02/08 03:53:03;;;;;;;1.25;0.50;;;;;;;14.24;100.00;99624.31;5027510;28;20061;-60
2024/02/08 03:55:35;;;;;;;1.00;0.40;;;;;;;14.28;100.00;99605.81;5027441;28;20510;-60
2024/02/08 03:58:06;;;;;;;2.58;0.60;;;;;;;14.30;100.00;99607.06;5016514;28;20629;-61
2024/02/08 04:00:34;;;;;;;0.98;0.52;;;;;;;14.27;100.00;99602.25;5027270;28;20499;-61
2024/02/08 04:03:10;;;;;;;1.50;0.60;;;;;;;14.14;100.00;99599.97;5028522;28;20111;-60
2024/02/08 04:54:57;;;;;;;1.58;0.40;;;;;;;14.33;100.00;99550.13;4996007;28;20118;-61
2024/02/08 04:57:25;;;;;;;1.20;0.30;;;;;;;14.28;100.00;99556.75;4994283;28;20608;-60
2024/02/08 04:59:52;;;;;;;1.42;0.20;;;;;;;14.38;100.00;99547.84;5037624;28;20461;-60
2024/02/08 05:02:22;;;;;;;1.48;0.22;;;;;;;14.25;100.00;99540.84;5044647;28;20058;-60
2024/02/08 05:04:49;;;;;;;0.20;0.20;;;;;;;14.25;100.00;99549.16;5029610;28;20053;-61
2024/02/08 05:07:17;;;;;;;1.35;0.30;;;;;;;14.13;100.00;99554.84;5028451;28;20057;-61
2024/02/08 05:09:45;;;;;;;2.80;0.40;;;;;;;14.25;100.00;99535.31;5028279;28;20053;-61
2024/02/08 05:12:13;;;;;;;0.38;0.22;;;;;;;14.23;100.00;99534.06;5030043;28;20049;-60
2024/02/08 05:14:40;;;;;;;1.38;0.45;;;;;;;14.38;100.00;99536.75;5028158;28;20057;-61
2024/02/08 05:17:09;;;;;;;1.08;0.40;;;;;;;14.20;100.00;99537.56;5021344;28;20064;-61
2024/02/08 05:19:43;;;;;;;0.55;0.20;;;;;;;14.45;100.00;99547.19;5031327;28;20433;-60
2024/02/08 05:22:13;;;;;;;0.47;0.28;;;;;;;14.34;100.00;99540.66;5012215;28;20050;-60
2024/02/08 05:24:41;;;;;;;;;;;;;;;14.38;100.00;99538.75;5026136;28;20053;-60
2024/02/08 05:27:11;;;;;;;2.13;0.38;;;;;;;14.23;100.00;99536.81;5028264;28;19931;-61
2024/02/08 05:29:41;;;;;;;;;;;;;;;14.17;100.00;99539.13;5032606;28;20060;-61
2024/02/08 05:32:09;;;;;;;1.50;0.40;;;;;;;14.07;100.00;99527.81;5017526;28;20586;-61
2024/02/08 05:34:39;;;;;;;3.50;0.40;;;;;;;14.16;100.00;99529.19;5012400;28;20309;-61
2024/02/08 05:37:06;;;;;;;1.23;0.50;;;;;;;14.24;100.00;99530.13;5010516;28;20054;-61
2024/02/08 05:39:36;;;;;;;3.50;0.40;;;;;;;14.17;100.00;99533.56;5017815;28;20064;-61
2024/02/08 05:42:03;;;;;;;1.40;0.43;;;;;;;14.33;100.00;99530.75;5046281;28;20061;-61
2024/02/08 05:44:31;;;;;;;3.75;0.30;;;;;;;14.42;100.00;99536.81;5043849;28;20072;-61
2024/02/08 05:47:07;;;;;;;2.17;0.40;;;;;;;14.49;100.00;99536.97;5029596;28;20053;-60
2024/02/08 05:49:45;;;;;;;1.98;0.55;;;;;;;14.47;100.00;99536.56;5026052;28;20564;-62
2024/02/08 05:52:13;;;;;;;1.50;0.40;;;;;;;14.52;100.00;99536.25;5026935;28;20064;-61
2024/02/08 05:54:45;;;;;;;2.92;0.55;;;;;;;14.62;100.00;99530.09;5023026;28;20060;-62
2024/02/08 05:57:13;;;;;;;2.22;0.57;;;;;;;14.60;100.00;99536.00;5032410;28;20057;-62
2024/02/08 05:59:44;;;;;;;1.70;0.52;;;;;;;14.52;100.00;99534.25;5049347;28;20748;-61
2024/02/08 06:02:22;;;;;;;3.08;0.80;;;;;;;14.43;100.00;99535.69;5028153;28;20049;-61
2024/02/08 06:04:59;;;;;;;3.60;1.00;;;;;;;14.61;100.00;99536.78;5041445;28;20057;-61
2024/02/08 06:07:30;;;;;;;2.35;0.93;;;;;;;14.62;100.00;99533.66;5009941;28;20064;-62
2024/02/08 06:10:13;;;;;;;3.50;1.13;;;;;;;14.68;100.00;99538.91;5028189;28;20049;-62
2024/02/08 06:12:51;;;;;;;4.80;1.30;;;;;;;14.73;100.00;99533.03;5027937;28;20108;-62
2024/02/08 06:15:24;;;;;;;5.75;1.25;;;;;;;14.68;100.00;99525.81;5025930;28;20049;-61
2024/02/08 06:18:05;;;;;;;7.25;1.38;;;;;;;14.42;100.00;99531.28;5029012;28;20053;-61
2024/02/08 06:20:35;;;;;;;11.03;1.63;;;;;;;14.52;100.00;99525.16;5023287;28;20068;-62
2024/02/08 06:23:15;;;;;;;15.23;2.40;;;;;;;14.43;100.00;99530.13;5008614;28;20072;-61
2024/02/08 06:26:08;;;;;;;10.40;1.92;;;;;;;14.34;100.00;99527.59;5023078;28;20053;-60
2024/02/08 06:28:37;;;;;;;10.60;2.10;;;;;;;14.36;100.00;99525.28;5024210;28;20602;-61
2024/02/08 06:31:06;;;;;;;17.73;2.65;;;;;;;14.32;100.00;99523.59;5028154;28;20059;-61
2024/02/08 06:33:42;;;;;;;17.77;3.50;;;;;;;14.23;100.00;99522.97;5027335;28;20057;-60
2024/02/08 06:36:12;;;;;;;26.33;3.40;;;;;;;14.14;100.00;99520.44;5028515;28;20061;-61
2024/02/08 06:38:51;;;;;;;24.25;4.30;;;;;;;14.20;100.00;99520.94;5027574;28;20089;-62
2024/02/08 06:41:51;;;;;;;16.17;4.13;;;;;;;14.31;100.00;99519.22;5029583;28;20064;-61
2024/02/08 06:47:18;;;;;;;25.83;4.53;;;;;;;14.17;100.00;99519.72;5019712;28;20053;-60
2024/02/08 07:39:46;;;;;;;34.40;7.78;;;;;;;14.42;99.59;99515.47;5031098;28;20072;-61
2024/02/08 07:42:20;;;;;;;33.25;7.40;;;;;;;14.30;100.00;99512.88;5043336;28;20046;-60
2024/02/08 07:44:54;;;;;;;44.13;8.85;;;;;;;14.48;100.00;99519.56;5031077;28;20057;-62
2024/02/08 07:47:24;;;;;;;46.85;8.52;;;;;;;14.36;99.22;99511.41;5032562;28;20547;-61
2024/02/08 07:49:57;;;;;;;;;;;;;;;14.22;99.71;99515.84;5016040;28;20049;-60
2024/02/08 07:52:25;;;;;;;45.90;8.48;;;;;;;14.43;99.77;99499.66;5024801;28;19929;-63
2024/02/08 07:57:46;;;;;;;43.53;8.32;;;;;;;14.46;98.68;99512.78;5019960;28;20058;-62
2024/02/08 08:03:08;;;;;;;48.97;8.15;;;;;;;14.56;99.09;99503.84;5037855;28;20041;-61
2024/02/08 08:05:41;;;;;;;42.50;8.77;;;;;;;14.46;98.92;99494.19;5044316;28;20056;-61
2024/02/08 08:08:24;;;;;;;52.35;7.82;;;;;;;14.54;98.64;99497.84;5000775;28;20053;-62
2024/02/08 08:11:02;;;;;;;42.63;8.63;;;;;;;14.49;99.21;99490.66;5013526;28;20601;-59
2024/02/08 08:13:52;;;;;;;47.38;8.45;;;;;;;14.70;100.00;99492.22;5047598;28;20046;-63
2024/02/08 08:19:10;;;;;;;36.83;6.97;;;;;;;15.17;98.21;99482.28;5033880;28;20684;-61
2024/02/08 08:24:26;;;;;;;49.28;10.35;;;;;;;15.13;97.30;99484.19;5030683;28;20053;-62
2024/02/08 08:29:43;;;;;;;37.83;8.23;;;;;;;15.13;94.85;99484.19;4999216;28;20057;-59
2024/02/08 08:40:39;;;;;;;48.38;8.77;;;;;;;15.63;91.03;99474.63;5039324;28;20397;-61
2024/02/08 08:43:10;;;;;;;41.75;8.10;;;;;;;15.86;89.47;99471.72;5035039;28;20049;-60
2024/02/08 08:45:40;;;;;;;41.65;7.22;;;;;;;15.32;90.05;99466.66;5014810;28;20746;-60
2024/02/08 08:48:08;;;;;;;52.72;9.38;;;;;;;15.30;91.12;99469.78;5039379;28;20049;-61
2024/02/08 08:50:36;;;;;;;40.85;7.50;;;;;;;15.13;91.98;99472.31;5017354;28;20623;-60
2024/02/08 08:53:19;;;;;;;46.00;8.30;;;;;;;14.99;94.14;99472.09;5012108;28;20045;-61
2024/02/08 08:56:10;;;;;;;46.97;9.35;;;;;;;14.68;96.66;99461.28;5015705;28;20057;-60
2024/02/08 08:58:39;;;;;;;47.38;9.32;;;;;;;15.01;94.84;99462.22;5027807;28;20069;-62
2024/02/08 09:01:15;;;;;;;43.67;9.50;;;;;;;14.80;95.83;99459.13;5030706;28;20045;-62
2024/02/08 09:03:44;;;;;;;46.33;8.23;;;;;;;14.58;96.88;99462.72;5031064;28;20041;-62
2024/02/08 09:06:17;;;;;;;43.60;8.30;;;;;;;14.57;97.22;99463.88;5017619;28;20500;-62
2024/02/08 09:08:46;;;;;;;48.67;9.40;;;;;;;14.56;98.26;99454.75;5032633;28;20041;-61
2024/02/08 09:11:14;;;;;;;52.83;8.50;;;;;;;14.70;97.28;99450.66;5037197;28;20049;-60
2024/02/08 09:13:51;;;;;;;45.55;8.95;;;;;;;14.71;97.77;99450.28;5026269;28;20049;-61
2024/02/08 09:21:32;;;;;;;54.20;9.00;;;;;;;14.67;96.91;99446.63;5032802;28;20045;-61
2024/02/08 09:24:03;;;;;;;54.90;9.20;;;;;;;14.74;97.69;99443.16;5029131;28;20068;-59
2024/02/08 09:29:24;;;;;;;42.00;8.52;;;;;;;14.78;99.92;99435.72;5027259;28;20050;-61
2024/02/08 09:32:00;;;;;;;47.38;8.93;;;;;;;14.51;99.64;99448.72;5026413;28;20060;-62
2024/02/08 09:34:38;;;;;;;49.58;9.27;;;;;;;14.51;100.00;99434.88;5021122;28;20068;-60
2024/02/08 09:37:08;;;;;;;41.38;8.57;;;;;;;14.48;100.00;99443.94;5034681;28;20064;-61
2024/02/08 09:39:53;;;;;;;38.40;7.47;;;;;;;14.30;100.00;99442.81;5010825;28;20057;-61
2024/02/08 09:42:37;;;;;;;46.70;8.93;;;;;;;14.34;100.00;99438.16;5041826;28;20033;-61
2024/02/08 09:48:10;;;;;;;33.30;7.78;;;;;;;14.38;100.00;99427.94;5033246;28;20065;-60
2024/02/08 09:50:50;;;;;;;36.75;8.52;;;;;;;14.34;100.00;99432.59;5038899;28;20057;-62
2024/02/08 09:53:27;;;;;;;39.50;7.27;;;;;;;14.41;100.00;99424.41;5037668;28;20056;-61
2024/02/08 09:55:57;;;;;;;32.22;7.30;;;;;;;14.44;99.73;99426.44;5043140;28;20063;-61
2024/02/08 09:58:39;;;;;;;38.95;7.82;;;;;;;14.30;99.72;99421.47;5032265;28;20049;-62
2024/02/08 10:01:30;;;;;;;30.42;6.72;;;;;;;14.08;100.00;99425.00;5013847;28;20045;-62
2024/02/08 10:04:04;;;;;;;28.05;6.90;;;;;;;14.35;99.19;99400.94;5044517;28;20072;-61
2024/02/08 10:09:35;;;;;;;35.17;7.00;;;;;;;14.46;97.57;99393.63;5017730;28;20061;-60
2024/02/08 10:12:07;;;;;;;33.28;7.15;;;;;;;14.32;98.03;99398.94;5030924;28;20045;-61
2024/02/08 10:14:46;;;;;;;32.78;7.15;;;;;;;14.37;97.41;99387.53;5037275;28;20048;-60
2024/02/08 10:17:17;;;;;;;37.15;7.32;;;;;;;14.36;97.78;99383.19;5024640;28;20050;-60
2024/02/08 10:22:54;;;;;;;34.28;6.88;;;;;;;14.57;97.75;99378.75;5039168;28;20061;-62
2024/02/08 10:28:21;;;;;;;;;;;;;;;14.53;96.14;99363.25;5009489;28;20065;-61
2024/02/08 10:30:59;;;;;;;31.23;7.15;;;;;;;14.68;95.12;99373.38;5045703;28;19929;-62
2024/02/08 10:33:35;;;;;;;34.85;6.88;;;;;;;14.53;94.59;99366.84;5044795;28;20487;-62
2024/02/08 10:36:15;;;;;;;49.92;7.95;;;;;;;14.54;94.59;99373.97;5050712;28;20072;-60
2024/02/08 10:39:02;;;;;;;37.20;7.20;;;;;;;14.71;94.55;99378.22;5039929;28;20060;-60
2024/02/08 10:41:54;;;;;;;37.75;6.95;;;;;;;14.78;93.81;99377.50;5050653;28;20148;-61
2024/02/08 10:44:24;;;;;;;31.02;6.57;;;;;;;14.84;93.73;99364.91;5030139;28;20072;-60
2024/02/08 10:47:05;;;;;;;32.67;7.10;;;;;;;14.77;94.15;99367.59;5030540;28;20393;-62
2024/02/08 10:49:42;;;;;;;39.03;8.68;;;;;;;14.89;93.71;99359.84;5014979;28;20068;-60
2024/02/08 10:52:12;;;;;;;32.38;7.88;;;;;;;14.78;93.26;99347.00;5038324;28;20057;-61
2024/02/08 10:54:43;;;;;;;33.90;8.33;;;;;;;14.92;92.06;99350.00;5024002;28;20540;-63
2024/02/08 11:00:00;;;;;;;28.98;6.50;;;;;;;14.81;92.00;99332.41;5018454;28;20489;-62
2024/02/08 11:02:35;;;;;;;;;;;;;;;14.97;92.12;99319.97;5030304;28;20061;-61
2024/02/08 11:05:48;;;;;;;29.83;7.50;;;;;;;14.93;91.53;99324.66;5031412;28;19932;-62
2024/02/08 11:07:56;;;;;;;28.65;6.90;;;;;;;15.14;90.85;99316.59;5022365;28;20060;-59
2024/02/08 11:10:23;;;;;;;34.17;7.63;;;;;;;15.28;89.47;99316.78;5030333;28;20045;-62
2024/02/08 11:13:10;;;;;;;37.20;7.28;;;;;;;15.13;90.37;99297.56;5017075;28;20052;-63
2024/02/08 11:15:47;;;;;;;30.17;7.03;;;;;;;15.08;90.86;99286.81;5019570;28;20053;-61
2024/02/08 11:18:33;;;;;;;31.33;7.50;;;;;;;15.35;88.83;99293.88;5031405;28;20064;-61
2024/02/08 11:21:04;;;;;;;36.35;7.75;;;;;;;15.25;88.54;99286.22;5048675;28;20052;-62
2024/02/08 11:23:45;;;;;;;32.90;7.03;;;;;;;15.05;88.92;99285.59;4990209;28;20060;-62
2024/02/08 11:26:13;;;;;;;37.88;7.95;;;;;;;15.17;88.68;99268.69;5011402;28;20061;-62
2024/02/08 11:29:01;;;;;;;40.63;13.98;;;;;;;15.12;89.12;99271.81;5028344;28;20056;-62
2024/02/08 11:31:32;;;;;;;63.40;21.95;;;;;;;15.04;90.18;99263.78;5045508;28;20103;-65
2024/02/08 11:34:24;;;;;;;32.90;10.77;;;;;;;15.25;90.74;99278.72;5031837;28;20660;-61
2024/02/08 11:36:58;;;;;;;29.65;7.85;;;;;;;15.21;89.67;99264.00;5019335;28;20382;-61
2024/02/08 11:39:30;;;;;;;27.02;7.50;;;;;;;15.14;89.82;99265.88;5037770;28;20048;-61
2024/02/08 11:42:05;;;;;;;36.08;8.13;;;;;;;15.33;89.67;99249.03;5038854;28;20056;-64
2024/02/08 11:44:43;;;;;;;23.08;6.57;;;;;;;15.30;89.90;99255.38;5045752;28;20037;-60
2024/02/08 11:47:23;;;;;;;25.95;7.20;;;;;;;15.47;90.24;99244.47;5045880;28;20062;-61
2024/02/08 11:49:52;;;;;;;29.92;7.40;;;;;;;15.20;90.23;99248.50;5008318;28;20092;-62
2024/02/08 11:52:23;;;;;;;35.63;8.48;;;;;;;15.18;91.54;99241.75;5022632;28;20045;-62
2024/02/08 11:55:14;;;;;;;36.13;9.25;;;;;;;15.36;90.16;99251.88;5024229;28;20053;-61
2024/02/08 11:57:42;;;;;;;31.85;9.52;;;;;;;15.38;89.83;99251.47;5029303;28;20049;-62
2024/02/08 12:00:16;;;;;;;44.03;14.45;;;;;;;15.31;89.65;99240.31;5035595;28;20055;-61
2024/02/08 12:02:58;;;;;;;31.92;8.52;;;;;;;15.51;88.83;99238.97;5009193;28;20053;-62
2024/02/08 12:05:28;;;;;;;30.25;7.65;;;;;;;15.55;88.05;99225.94;5019238;28;20050;-61
2024/02/08 12:08:16;;;;;;;25.90;6.97;;;;;;;15.67;87.97;99223.66;5032674;28;20052;-60
2024/02/08 12:10:48;;;;;;;30.35;7.30;;;;;;;15.44;87.33;99222.25;5029637;28;20413;-63
2024/02/08 12:13:17;;;;;;;33.85;7.25;;;;;;;15.46;88.20;99209.56;5038470;28;20053;-61
2024/02/08 12:15:49;;;;;;;30.45;7.65;;;;;;;15.40;87.80;99216.66;5014514;28;20409;-61
2024/02/08 12:18:23;;;;;;;31.10;7.20;;;;;;;15.33;88.37;99202.69;5002446;28;20050;-61
2024/02/08 12:21:01;;;;;;;33.70;7.53;;;;;;;15.66;87.59;99218.47;5021774;28;20045;-61
2024/02/08 12:23:31;;;;;;;29.10;8.43;;;;;;;15.61;87.17;99208.53;5046600;28;20528;-61
2024/02/08 12:26:02;;;;;;;28.80;7.65;;;;;;;15.81;86.72;99198.00;5021437;28;20065;-61
2024/02/08 12:28:34;;;;;;;25.95;7.05;;;;;;;15.98;84.22;99194.56;5044594;28;20517;-60
2024/02/08 12:31:02;;;;;;;32.35;7.38;;;;;;;15.94;84.44;99196.50;5027648;28;20054;-61
2024/02/08 12:33:32;;;;;;;33.78;8.50;;;;;;;16.04;83.94;99187.44;5030454;28;20049;-62
2024/02/08 12:35:59;;;;;;;;;;;;;;;15.87;83.29;99184.53;5035643;28;20052;-59
2024/02/08 12:38:27;;;;;;;28.83;7.45;;;;;;;15.89;82.41;99190.50;5043492;28;19924;-60
2024/02/08 12:41:01;;;;;;;29.30;8.25;;;;;;;15.72;82.36;99187.22;5021743;28;20057;-60
2024/02/08 12:43:28;;;;;;;25.35;6.60;;;;;;;15.72;83.65;99180.88;5033525;28;20677;-62
2024/02/08 12:45:56;;;;;;;33.78;10.30;;;;;;;15.76;82.49;99170.56;5023080;28;20049;-61
2024/02/08 12:48:29;;;;;;;36.58;9.93;;;;;;;15.81;81.92;99180.53;5038118;28;20071;-60
2024/02/08 12:50:56;;;;;;;38.75;12.40;;;;;;;15.82;80.94;99174.59;5032296;28;20050;-61
2024/02/08 12:53:24;;;;;;;39.08;12.77;;;;;;;16.10;81.18;99160.09;5036792;28;20057;-61
2024/02/08 12:55:51;;;;;;;39.30;11.30;;;;;;;15.97;80.80;99162.41;5014495;28;20054;-62
2024/02/08 12:58:18;;;;;;;38.35;9.98;;;;;;;15.84;81.48;99160.31;5031601;28;20881;-60
2024/02/08 13:01:04;;;;;;;28.52;7.85;;;;;;;15.88;81.03;99150.03;5032707;28;20060;-60
2024/02/08 13:03:34;;;;;;;29.00;7.75;;;;;;;15.92;80.40;99151.66;5051187;28;20540;-60
2024/02/08 13:06:05;;;;;;;30.67;9.82;;;;;;;15.88;80.59;99142.53;5042929;28;20064;-60
2024/02/08 13:08:35;;;;;;;23.33;7.22;;;;;;;15.94;80.23;99146.50;5007523;28;20045;-62
2024/02/08 13:11:03;;;;;;;23.75;6.40;;;;;;;16.03;80.08;99135.06;5035474;28;20072;-60
2024/02/08 13:13:31;;;;;;;24.17;8.77;;;;;;;16.14;79.46;99139.50;5048119;28;20436;-60
2024/02/08 13:16:06;;;;;;;22.25;6.05;;;;;;;16.06;79.21;99142.59;5039479;28;20063;-60
2024/02/08 13:18:34;;;;;;;22.35;6.32;;;;;;;15.97;79.57;99142.19;5030323;28;20053;-60
2024/02/08 13:21:03;;;;;;;24.90;6.07;;;;;;;15.87;80.77;99137.31;5041930;28;20049;-60
2024/02/08 13:23:33;;;;;;;26.75;6.68;;;;;;;15.89;81.52;99133.00;5046331;28;20060;-61
2024/02/08 13:26:01;;;;;;;22.17;6.32;;;;;;;16.01;81.89;99123.53;5037495;28;20052;-60
2024/02/08 13:28:32;;;;;;;23.98;7.60;;;;;;;15.75;82.64;99127.34;5037794;28;20053;-60
2024/02/08 13:31:05;;;;;;;22.13;6.28;;;;;;;15.50;83.46;99129.94;5037759;28;20057;-61
2024/02/08 13:33:38;;;;;;;25.60;6.68;;;;;;;15.66;84.43;99126.88;5032589;28;20421;-61
2024/02/08 13:36:08;;;;;;;23.23;6.60;;;;;;;15.78;84.05;99119.03;5000666;28;20060;-62
2024/02/08 13:38:38;;;;;;;31.52;7.65;;;;;;;15.70;84.32;99114.63;5022204;28;20057;-60
2024/02/08 13:41:09;;;;;;;25.55;7.00;;;;;;;15.57;85.84;99104.22;5048771;28;20068;-60
2024/02/08 13:43:40;;;;;;;29.52;7.20;;;;;;;15.51;86.51;99112.13;5034173;28;20060;-59
2024/02/08 13:46:07;;;;;;;30.33;7.43;;;;;;;15.39;87.36;99104.06;5034229;28;20045;-61
2024/02/08 13:48:35;;;;;;;21.88;7.15;;;;;;;15.31;88.00;99096.84;5015523;28;20057;-59
2024/02/08 13:51:07;;;;;;;24.92;6.65;;;;;;;15.34;87.97;99103.63;5031010;28;20547;-60
2024/02/08 13:53:37;;;;;;;27.33;7.20;;;;;;;15.42;88.55;99108.88;5033648;28;20060;-62
2024/02/08 13:56:08;;;;;;;25.30;7.38;;;;;;;15.35;88.00;99100.47;5016929;28;20500;-61
2024/02/08 13:58:36;;;;;;;21.00;6.68;;;;;;;15.39;87.84;99098.53;5034142;28;20053;-61
2024/02/08 14:01:04;;;;;;;23.63;7.00;;;;;;;15.07;89.12;99091.09;5040845;28;20049;-62
2024/02/08 14:03:34;;;;;;;22.45;7.18;;;;;;;15.17;88.44;99088.41;5016083;28;20041;-59
2024/02/08 14:06:02;;;;;;;23.25;6.65;;;;;;;15.39;89.33;99083.84;5018056;28;20045;-61
2024/02/08 14:08:30;;;;;;;29.95;7.68;;;;;;;15.31;88.86;99079.41;5033955;28;20054;-61
2024/02/08 14:10:58;;;;;;;20.58;6.45;;;;;;;15.28;88.18;99074.63;5047939;28;20064;-61
2024/02/08 14:13:32;;;;;;;23.85;6.43;;;;;;;15.00;88.68;99075.19;5033047;28;20045;-62
2024/02/08 14:16:13;;;;;;;27.63;7.28;;;;;;;15.04;89.11;99067.72;5033308;28;20427;-61